Time;durP1;ratioP1;P1;durP2;ratioP2;P2;SDS_P1;SDS_P2;PMS_P1;PMS_P2;Temp;Humidity;BMP_temperature;BMP_pressure;BME280_temperature;BME280_humidity;BME280_pressure;Samples;Min_cycle;Max_cycle;Signal;HPM_P1;HPM_P2
2022/02/27 00:00:22;;;;;;;9.95;5.65;;;;;;;;;;5094565;28;20667;-66
2022/02/27 00:02:48;;;;;;;9.80;5.38;;;;;;;;;;5094683;28;20160;-66
2022/02/27 00:05:15;;;;;;;15.45;5.22;;;;;;;;;;5094815;28;20465;-66
2022/02/27 00:07:41;;;;;;;10.43;4.80;;;;;;;;;;5094647;28;20159;-66
2022/02/27 00:10:07;;;;;;;6.28;5.03;;;;;;;;;;5094854;28;20216;-66
2022/02/27 00:12:33;;;;;;;11.30;5.15;;;;;;;;;;5094608;28;20160;-66
2022/02/27 00:14:59;;;;;;;11.23;5.18;;;;;;;;;;5094872;28;20167;-66
2022/02/27 00:17:25;;;;;;;8.77;5.57;;;;;;;;;;5094408;28;20270;-66
2022/02/27 00:19:51;;;;;;;10.57;4.57;;;;;;;;;;5094427;28;20670;-66
2022/02/27 00:22:17;;;;;;;7.80;5.00;;;;;;;;;;5094328;28;20170;-66
2022/02/27 00:24:42;;;;;;;8.73;5.47;;;;;;;;;;5094165;28;20178;-66
2022/02/27 00:27:09;;;;;;;8.80;4.90;;;;;;;;;;5094133;28;20190;-66
2022/02/27 00:29:34;;;;;;;10.23;5.00;;;;;;;;;;5094098;28;20163;-66
2022/02/27 00:32:00;;;;;;;6.10;4.47;;;;;;;;;;5094120;28;20216;-66
2022/02/27 00:34:26;;;;;;;8.98;4.93;;;;;;;;;;5094045;28;20500;-66
2022/02/27 00:36:52;;;;;;;9.85;4.70;;;;;;;;;;5094329;28;20170;-66
2022/02/27 00:39:18;;;;;;;9.27;5.13;;;;;;;;;;5094248;28;20260;-66
2022/02/27 00:41:44;;;;;;;8.90;4.75;;;;;;;;;;5094165;28;20344;-66
2022/02/27 00:44:10;;;;;;;10.02;5.13;;;;;;;;;;5093830;28;20495;-66
2022/02/27 00:46:36;;;;;;;9.15;5.00;;;;;;;;;;5093660;28;20163;-66
2022/02/27 00:49:02;;;;;;;10.35;5.00;;;;;;;;;;5093957;28;20232;-66
2022/02/27 00:51:28;;;;;;;8.50;5.25;;;;;;;;;;5094405;28;20163;-66
2022/02/27 00:53:54;;;;;;;8.35;5.00;;;;;;;;;;5100723;28;20607;-66
2022/02/27 00:56:20;;;;;;;10.13;4.95;;;;;;;;;;5103503;28;20167;-66
2022/02/27 00:58:50;;;;;;;9.27;5.80;;;;;;;;;;5093780;28;20496;-66
2022/02/27 01:01:16;;;;;;;8.23;4.90;;;;;;;;;;5093589;28;20191;-66
2022/02/27 01:03:42;;;;;;;11.98;5.88;;;;;;;;;;5092946;28;20170;-66
2022/02/27 01:06:08;;;;;;;14.35;5.85;;;;;;;;;;5093726;28;20635;-66
2022/02/27 01:08:34;;;;;;;9.10;5.53;;;;;;;;;;5093954;28;20297;-66
2022/02/27 01:11:00;;;;;;;8.20;5.60;;;;;;;;;;5093550;28;20171;-65
2022/02/27 01:13:26;;;;;;;10.25;5.32;;;;;;;;;;5093637;28;20167;-66
2022/02/27 01:15:52;;;;;;;10.20;5.68;;;;;;;;;;5093631;28;20629;-66
2022/02/27 01:18:17;;;;;;;10.25;5.88;;;;;;;;;;5093533;28;20251;-66
2022/02/27 01:20:43;;;;;;;13.20;6.07;;;;;;;;;;5093739;28;20252;-67
2022/02/27 01:23:10;;;;;;;8.52;5.15;;;;;;;;;;5093598;28;20228;-66
2022/02/27 01:25:36;;;;;;;10.73;5.60;;;;;;;;;;5093811;28;20164;-66
2022/02/27 01:28:02;;;;;;;6.47;4.80;;;;;;;;;;5093578;28;20156;-66
2022/02/27 01:30:28;;;;;;;7.93;4.63;;;;;;;;;;5093629;28;20167;-66
2022/02/27 01:32:53;;;;;;;11.05;5.55;;;;;;;;;;5093519;28;20599;-67
2022/02/27 01:35:20;;;;;;;8.88;5.05;;;;;;;;;;5093232;28;20168;-66
2022/02/27 01:37:46;;;;;;;15.63;5.38;;;;;;;;;;5093429;28;20230;-66
2022/02/27 01:40:12;;;;;;;8.07;4.47;;;;;;;;;;5093100;28;20183;-66
2022/02/27 01:42:38;;;;;;;11.45;5.22;;;;;;;;;;5093369;28;20663;-66
2022/02/27 01:45:05;;;;;;;9.05;4.63;;;;;;;;;;5093473;28;20164;-66
2022/02/27 01:47:31;;;;;;;9.10;4.10;;;;;;;;;;5093275;28;20187;-66
2022/02/27 01:49:57;;;;;;;12.10;4.57;;;;;;;;;;5093167;28;20159;-66
2022/02/27 01:52:23;;;;;;;10.48;4.65;;;;;;;;;;5093506;28;20164;-66
2022/02/27 01:54:49;;;;;;;7.65;4.72;;;;;;;;;;5093104;28;20168;-66
2022/02/27 01:57:15;;;;;;;8.98;4.53;;;;;;;;;;5093469;28;20168;-66
2022/02/27 01:59:41;;;;;;;10.73;4.57;;;;;;;;;;5095596;28;20175;-67
2022/02/27 02:02:07;;;;;;;8.63;4.13;;;;;;;;;;5096950;28;20611;-67
2022/02/27 02:04:34;;;;;;;7.55;4.13;;;;;;;;;;5096873;28;20160;-66
2022/02/27 02:07:00;;;;;;;13.18;4.45;;;;;;;;;;5096982;28;20214;-67
2022/02/27 02:09:26;;;;;;;8.50;4.88;;;;;;;;;;5096865;28;20221;-67
2022/02/27 02:11:52;;;;;;;8.93;3.92;;;;;;;;;;5097026;28;20172;-67
2022/02/27 02:14:18;;;;;;;12.60;5.18;;;;;;;;;;5097015;28;20178;-66
2022/02/27 02:16:49;;;;;;;6.47;3.65;;;;;;;;;;5097029;28;20171;-66
2022/02/27 02:19:15;;;;;;;6.03;3.78;;;;;;;;;;5096803;28;20156;-66
2022/02/27 02:21:44;;;;;;;7.82;4.25;;;;;;;;;;5096947;28;20232;-66
2022/02/27 02:24:10;;;;;;;8.82;4.07;;;;;;;;;;5096643;28;20629;-66
2022/02/27 02:26:36;;;;;;;8.25;4.07;;;;;;;;;;5096362;28;20179;-66
2022/02/27 02:29:03;;;;;;;6.55;4.18;;;;;;;;;;5096903;28;20175;-67
2022/02/27 02:31:29;;;;;;;9.95;4.10;;;;;;;;;;5096389;28;20174;-66
2022/02/27 02:33:54;;;;;;;6.78;3.92;;;;;;;;;;5096665;28;20167;-66
2022/02/27 02:36:20;;;;;;;9.73;4.15;;;;;;;;;;5096324;28;20170;-67
2022/02/27 02:38:46;;;;;;;7.63;4.20;;;;;;;;;;5096260;28;20242;-66
2022/02/27 02:41:12;;;;;;;7.97;4.45;;;;;;;;;;5096155;28;20653;-67
2022/02/27 02:43:39;;;;;;;9.05;3.75;;;;;;;;;;5096267;28;20263;-67
2022/02/27 02:46:04;;;;;;;11.63;4.43;;;;;;;;;;5096110;28;20619;-67
2022/02/27 02:48:30;;;;;;;6.75;4.55;;;;;;;;;;5096153;28;20606;-67
2022/02/27 02:50:57;;;;;;;13.48;4.72;;;;;;;;;;5095909;28;20533;-66
2022/02/27 02:53:33;;;;;;;8.07;4.78;;;;;;;;;;5095962;28;20491;-66
2022/02/27 02:56:01;;;;;;;8.45;4.55;;;;;;;;;;5095951;28;20160;-67
2022/02/27 02:58:27;;;;;;;7.68;4.45;;;;;;;;;;5094966;28;20225;-66
2022/02/27 03:00:52;;;;;;;8.57;4.90;;;;;;;;;;5095662;28;20191;-66
2022/02/27 03:03:18;;;;;;;11.52;5.28;;;;;;;;;;5095768;28;20614;-66
2022/02/27 03:05:44;;;;;;;11.55;5.70;;;;;;;;;;5094725;28;20175;-66
2022/02/27 03:08:10;;;;;;;9.80;5.68;;;;;;;;;;5095769;28;20225;-65
2022/02/27 03:10:36;;;;;;;12.95;5.55;;;;;;;;;;5095049;28;20178;-65
2022/02/27 03:13:02;;;;;;;11.45;6.20;;;;;;;;;;5095706;28;20491;-66
2022/02/27 03:15:28;;;;;;;12.15;5.97;;;;;;;;;;5094831;28;20603;-65
2022/02/27 03:17:54;;;;;;;8.25;5.60;;;;;;;;;;5095713;28;20552;-65
2022/02/27 03:20:20;;;;;;;9.45;5.35;;;;;;;;;;5095501;28;20713;-66
2022/02/27 03:22:46;;;;;;;9.40;5.57;;;;;;;;;;5095704;28;20178;-66
2022/02/27 03:25:11;;;;;;;8.85;5.78;;;;;;;;;;5095698;28;20197;-65
2022/02/27 03:27:37;;;;;;;11.35;6.25;;;;;;;;;;5095407;28;20175;-65
2022/02/27 03:30:04;;;;;;;13.13;5.75;;;;;;;;;;5095894;28;20163;-65
2022/02/27 03:32:30;;;;;;;8.18;5.15;;;;;;;;;;5095705;28;20191;-65
2022/02/27 03:34:56;;;;;;;10.25;5.18;;;;;;;;;;5095348;28;20210;-66
2022/02/27 03:37:22;;;;;;;8.13;5.13;;;;;;;;;;5095487;28;20220;-66
2022/02/27 03:39:47;;;;;;;10.95;4.93;;;;;;;;;;5095160;28;20178;-66
2022/02/27 03:42:13;;;;;;;10.85;5.35;;;;;;;;;;5094069;28;20174;-66
2022/02/27 03:44:39;;;;;;;13.73;5.53;;;;;;;;;;5095029;28;20172;-66
2022/02/27 03:47:05;;;;;;;12.15;4.70;;;;;;;;;;5095031;28;20581;-66
2022/02/27 03:49:31;;;;;;;8.68;4.55;;;;;;;;;;5095054;28;20224;-66
2022/02/27 03:51:57;;;;;;;12.40;5.13;;;;;;;;;;5094969;28;20174;-66
2022/02/27 03:54:23;;;;;;;10.48;5.18;;;;;;;;;;5095265;28;20491;-66
2022/02/27 03:56:49;;;;;;;10.35;4.85;;;;;;;;;;5094889;28;20175;-66
2022/02/27 03:59:15;;;;;;;9.00;4.55;;;;;;;;;;5094713;28;20167;-66
2022/02/27 04:01:41;;;;;;;8.55;4.80;;;;;;;;;;5095259;28;20187;-66
2022/02/27 04:04:07;;;;;;;11.95;5.45;;;;;;;;;;5094723;28;20164;-66
2022/02/27 04:06:33;;;;;;;12.82;5.10;;;;;;;;;;5094687;28;20163;-66
2022/02/27 04:08:59;;;;;;;8.43;4.90;;;;;;;;;;5094688;28;20258;-66
2022/02/27 04:11:25;;;;;;;13.50;5.20;;;;;;;;;;5094722;28;20186;-66
2022/02/27 04:13:50;;;;;;;8.65;4.78;;;;;;;;;;5094920;28;20159;-66
2022/02/27 04:16:16;;;;;;;12.63;5.05;;;;;;;;;;5094432;28;20242;-67
2022/02/27 04:18:42;;;;;;;8.65;4.38;;;;;;;;;;5094417;28;20616;-66
2022/02/27 04:21:08;;;;;;;8.10;4.95;;;;;;;;;;5093667;28;20183;-66
2022/02/27 04:23:34;;;;;;;11.32;5.30;;;;;;;;;;5094282;28;20163;-66
2022/02/27 04:26:00;;;;;;;9.95;5.30;;;;;;;;;;5095675;28;20215;-65
2022/02/27 04:28:26;;;;;;;11.32;5.22;;;;;;;;;;5095843;28;20212;-65
2022/02/27 04:30:52;;;;;;;7.45;4.40;;;;;;;;;;5095315;28;20164;-65
2022/02/27 04:33:18;;;;;;;8.55;5.28;;;;;;;;;;5095193;28;20472;-65
2022/02/27 04:35:44;;;;;;;12.77;5.32;;;;;;;;;;5095334;28;20164;-66
2022/02/27 04:38:10;;;;;;;9.93;4.88;;;;;;;;;;5094009;28;20168;-66
2022/02/27 04:40:36;;;;;;;9.95;4.60;;;;;;;;;;5094017;28;20633;-66
2022/02/27 04:43:03;;;;;;;13.65;5.10;;;;;;;;;;5094245;28;20160;-66
2022/02/27 04:45:29;;;;;;;12.25;4.85;;;;;;;;;;5093939;28;20160;-67
2022/02/27 04:47:55;;;;;;;7.30;4.63;;;;;;;;;;5093844;28;20202;-66
2022/02/27 04:50:21;;;;;;;11.52;4.85;;;;;;;;;;5094220;28;20167;-66
2022/02/27 04:52:47;;;;;;;8.27;4.93;;;;;;;;;;5093892;28;20232;-66
2022/02/27 04:55:13;;;;;;;9.60;4.93;;;;;;;;;;5093847;28;20167;-66
2022/02/27 04:57:39;;;;;;;9.23;4.93;;;;;;;;;;5093682;28;20182;-66
2022/02/27 05:00:07;;;;;;;9.23;4.30;;;;;;;;;;5093742;28;20274;-63
2022/02/27 05:02:33;;;;;;;10.32;4.95;;;;;;;;;;5093870;28;20221;-63
2022/02/27 05:04:59;;;;;;;9.13;5.00;;;;;;;;;;5093685;28;20174;-63
2022/02/27 05:07:25;;;;;;;13.05;5.07;;;;;;;;;;5093692;28;20164;-63
2022/02/27 05:09:51;;;;;;;11.48;5.03;;;;;;;;;;5093732;28;20174;-63
2022/02/27 05:12:17;;;;;;;10.77;5.07;;;;;;;;;;5093739;28;20164;-63
2022/02/27 05:14:43;;;;;;;9.00;5.03;;;;;;;;;;5093716;28;20545;-63
2022/02/27 05:17:09;;;;;;;9.00;5.40;;;;;;;;;;5093622;28;20174;-63
2022/02/27 05:19:35;;;;;;;7.10;4.47;;;;;;;;;;5093839;28;20179;-62
2022/02/27 05:22:01;;;;;;;7.85;4.97;;;;;;;;;;5093442;28;20199;-62
2022/02/27 05:24:27;;;;;;;8.40;4.75;;;;;;;;;;5093566;28;20252;-62
2022/02/27 05:26:52;;;;;;;11.75;5.22;;;;;;;;;;5093648;28;20248;-63
2022/02/27 05:29:18;;;;;;;11.30;4.57;;;;;;;;;;5093787;28;20554;-63
2022/02/27 05:31:45;;;;;;;14.50;4.78;;;;;;;;;;5093603;28;20182;-63
2022/02/27 05:34:11;;;;;;;8.25;5.32;;;;;;;;;;5097206;28;20163;-63
2022/02/27 05:36:37;;;;;;;9.27;4.50;;;;;;;;;;5097923;28;20167;-63
2022/02/27 05:39:04;;;;;;;8.18;4.70;;;;;;;;;;5097461;28;20225;-63
2022/02/27 05:41:30;;;;;;;9.93;4.40;;;;;;;;;;5097639;28;20278;-63
2022/02/27 05:43:56;;;;;;;10.88;4.78;;;;;;;;;;5097464;28;20247;-62
2022/02/27 05:46:22;;;;;;;12.63;4.72;;;;;;;;;;5097854;28;20167;-63
2022/02/27 05:48:48;;;;;;;8.05;4.93;;;;;;;;;;5097345;28;20164;-63
2022/02/27 05:51:14;;;;;;;10.73;4.80;;;;;;;;;;5097574;28;20603;-63
2022/02/27 05:53:40;;;;;;;10.90;4.78;;;;;;;;;;5097488;28;20607;-63
2022/02/27 05:56:06;;;;;;;10.68;4.40;;;;;;;;;;5097380;28;20171;-63
2022/02/27 05:58:32;;;;;;;9.80;4.63;;;;;;;;;;5097243;28;20220;-63
2022/02/27 06:00:58;;;;;;;10.23;4.32;;;;;;;;;;5097053;28;20531;-63
2022/02/27 06:03:24;;;;;;;10.35;4.47;;;;;;;;;;5097013;28;20168;-63
2022/02/27 06:05:50;;;;;;;12.07;5.57;;;;;;;;;;5097024;28;20167;-63
2022/02/27 06:08:16;;;;;;;11.02;5.05;;;;;;;;;;5097177;28;20160;-62
2022/02/27 06:10:42;;;;;;;11.48;4.63;;;;;;;;;;5097194;28;20236;-63
2022/02/27 06:13:08;;;;;;;10.02;4.85;;;;;;;;;;5097208;28;20159;-63
2022/02/27 06:15:34;;;;;;;13.50;4.90;;;;;;;;;;5096874;28;20176;-62
2022/02/27 06:18:00;;;;;;;8.23;4.70;;;;;;;;;;5097412;28;20258;-62
2022/02/27 06:20:26;;;;;;;11.82;5.20;;;;;;;;;;5097042;28;20198;-62
2022/02/27 06:22:52;;;;;;;12.98;5.57;;;;;;;;;;5096989;28;20160;-63
2022/02/27 06:25:19;;;;;;;17.20;5.63;;;;;;;;;;5097300;28;20163;-62
2022/02/27 06:27:45;;;;;;;16.10;5.88;;;;;;;;;;5096964;28;20691;-62
2022/02/27 06:30:12;;;;;;;11.43;4.75;;;;;;;;;;5097074;28;20175;-63
2022/02/27 06:32:38;;;;;;;11.02;4.70;;;;;;;;;;5097506;28;20203;-62
2022/02/27 06:35:04;;;;;;;9.18;5.22;;;;;;;;;;5098489;28;20168;-62
2022/02/27 06:37:30;;;;;;;10.27;4.68;;;;;;;;;;5098843;28;20180;-62
2022/02/27 06:39:56;;;;;;;12.30;5.88;;;;;;;;;;5098205;28;20297;-62
2022/02/27 06:42:22;;;;;;;9.52;4.95;;;;;;;;;;5097299;28;20757;-63
2022/02/27 06:44:48;;;;;;;10.02;5.15;;;;;;;;;;5095978;28;20163;-63
2022/02/27 06:47:14;;;;;;;12.35;5.35;;;;;;;;;;5096409;28;20170;-62
2022/02/27 06:49:40;;;;;;;7.75;4.55;;;;;;;;;;5096113;28;20178;-63
2022/02/27 06:52:06;;;;;;;11.60;5.15;;;;;;;;;;5096020;28;20172;-63
2022/02/27 06:54:32;;;;;;;12.30;5.18;;;;;;;;;;5096126;28;20172;-63
2022/02/27 06:56:58;;;;;;;8.50;5.18;;;;;;;;;;5096105;28;20175;-63
2022/02/27 06:59:24;;;;;;;13.02;5.18;;;;;;;;;;5096149;28;20619;-63
2022/02/27 07:01:50;;;;;;;11.95;5.20;;;;;;;;;;5094878;28;20210;-62
2022/02/27 07:04:16;;;;;;;10.85;5.13;;;;;;;;;;5095870;28;20171;-64
2022/02/27 07:06:42;;;;;;;13.82;5.22;;;;;;;;;;5095945;28;20217;-64
2022/02/27 07:09:08;;;;;;;14.05;5.30;;;;;;;;;;5096062;28;20591;-63
2022/02/27 07:11:34;;;;;;;13.88;5.72;;;;;;;;;;5095981;28;20612;-62
2022/02/27 07:14:00;;;;;;;8.55;5.15;;;;;;;;;;5095930;28;20270;-62
2022/02/27 07:16:26;;;;;;;12.13;5.45;;;;;;;;;;5095739;28;20260;-64
2022/02/27 07:18:57;;;;;;;14.65;6.15;;;;;;;;;;5095496;28;20167;-64
2022/02/27 07:21:23;;;;;;;13.85;5.70;;;;;;;;;;5095692;28;20179;-64
2022/02/27 07:23:49;;;;;;;13.95;6.30;;;;;;;;;;5094469;28;20174;-64
2022/02/27 07:26:15;;;;;;;11.30;5.82;;;;;;;;;;5095462;28;20175;-63
2022/02/27 07:28:41;;;;;;;13.57;6.03;;;;;;;;;;5095550;28;20270;-63
2022/02/27 07:31:07;;;;;;;13.55;6.70;;;;;;;;;;5095376;28;20171;-62
2022/02/27 07:33:33;;;;;;;15.48;6.53;;;;;;;;;;5095116;28;20168;-63
2022/02/27 07:35:59;;;;;;;9.30;5.95;;;;;;;;;;5094965;28;20167;-63
2022/02/27 07:38:24;;;;;;;13.85;7.55;;;;;;;;;;5094096;28;20202;-63
2022/02/27 07:40:51;;;;;;;14.30;7.22;;;;;;;;;;5095071;28;20199;-62
2022/02/27 07:43:18;;;;;;;17.08;8.13;;;;;;;;;;5094981;28;20247;-63
2022/02/27 07:45:45;;;;;;;20.95;9.52;;;;;;;;;;5095076;28;20159;-63
2022/02/27 07:48:11;;;;;;;16.65;8.82;;;;;;;;;;5095161;28;20195;-63
2022/02/27 07:50:37;;;;;;;19.60;9.73;;;;;;;;;;5095230;28;20191;-63
2022/02/27 07:53:03;;;;;;;18.35;9.20;;;;;;;;;;5094922;28;20649;-63
2022/02/27 07:55:29;;;;;;;23.67;10.25;;;;;;;;;;5095025;28;20201;-63
2022/02/27 07:57:55;;;;;;;23.55;9.93;;;;;;;;;;5094846;28;20160;-63
2022/02/27 08:00:21;;;;;;;25.17;10.95;;;;;;;;;;5095068;28;20642;-63
2022/02/27 08:02:47;;;;;;;19.20;10.20;;;;;;;;;;5094976;28;20558;-63
2022/02/27 08:05:13;;;;;;;24.63;11.63;;;;;;;;;;5095303;28;20468;-63
2022/02/27 08:07:39;;;;;;;28.90;10.73;;;;;;;;;;5095376;28;20182;-63
2022/02/27 08:10:05;;;;;;;30.02;11.18;;;;;;;;;;5095522;28;20509;-63
2022/02/27 08:12:32;;;;;;;28.55;11.07;;;;;;;;;;5095708;28;20176;-63
2022/02/27 08:14:58;;;;;;;30.90;12.02;;;;;;;;;;5095185;28;20595;-63
2022/02/27 08:17:24;;;;;;;30.67;12.52;;;;;;;;;;5094983;28;20164;-63
2022/02/27 08:19:50;;;;;;;27.90;12.77;;;;;;;;;;5095087;28;20220;-64
2022/02/27 08:22:17;;;;;;;32.17;13.00;;;;;;;;;;5095013;28;20238;-63
2022/02/27 08:24:44;;;;;;;27.67;11.20;;;;;;;;;;5095030;28;20198;-62
2022/02/27 08:27:09;;;;;;;27.02;10.95;;;;;;;;;;5094984;28;20626;-63
2022/02/27 08:29:35;;;;;;;29.52;11.65;;;;;;;;;;5094569;28;20195;-64
2022/02/27 08:32:01;;;;;;;28.77;11.32;;;;;;;;;;5094149;28;20163;-64
2022/02/27 08:34:29;;;;;;;28.02;11.35;;;;;;;;;;5094236;28;20595;-64
2022/02/27 08:36:55;;;;;;;21.80;11.02;;;;;;;;;;5094415;28;20171;-63
2022/02/27 08:39:21;;;;;;;23.63;11.27;;;;;;;;;;5094324;28;20780;-64
2022/02/27 08:41:47;;;;;;;28.45;11.32;;;;;;;;;;5094037;28;20199;-63
2022/02/27 08:44:13;;;;;;;24.20;11.20;;;;;;;;;;5094251;28;20494;-61
2022/02/27 08:46:39;;;;;;;27.73;12.00;;;;;;;;;;5094249;28;20187;-62
2022/02/27 08:49:06;;;;;;;28.65;11.68;;;;;;;;;;5094268;28;20282;-63
2022/02/27 08:51:32;;;;;;;29.92;12.45;;;;;;;;;;5094522;28;20172;-63
2022/02/27 08:53:58;;;;;;;25.70;11.75;;;;;;;;;;5093890;28;20167;-63
2022/02/27 08:56:24;;;;;;;28.38;12.13;;;;;;;;;;5094139;28;20183;-63
2022/02/27 08:58:50;;;;;;;21.17;10.18;;;;;;;;;;5094125;28;20168;-62
2022/02/27 09:01:16;;;;;;;24.13;10.55;;;;;;;;;;5093888;28;20195;-63
2022/02/27 09:03:42;;;;;;;24.73;11.23;;;;;;;;;;5093985;28;20507;-64
2022/02/27 09:06:08;;;;;;;18.25;9.55;;;;;;;;;;5093849;28;20220;-63
2022/02/27 09:08:35;;;;;;;22.20;10.25;;;;;;;;;;5093736;28;20171;-63
2022/02/27 09:11:01;;;;;;;22.83;10.38;;;;;;;;;;5094079;28;20179;-63
2022/02/27 09:13:27;;;;;;;24.13;10.32;;;;;;;;;;5094037;28;20186;-64
2022/02/27 09:15:53;;;;;;;20.75;9.90;;;;;;;;;;5092685;28;20505;-63
2022/02/27 09:18:18;;;;;;;22.63;10.02;;;;;;;;;;5093932;28;20517;-63
2022/02/27 09:20:44;;;;;;;24.55;10.68;;;;;;;;;;5093492;28;20347;-64
2022/02/27 09:23:11;;;;;;;20.58;10.18;;;;;;;;;;5093451;28;20167;-63
2022/02/27 09:25:37;;;;;;;20.45;10.02;;;;;;;;;;5093246;28;20595;-63
2022/02/27 09:28:03;;;;;;;24.08;9.95;;;;;;;;;;5093517;28;20155;-62
2022/02/27 09:30:29;;;;;;;22.95;9.88;;;;;;;;;;5093759;28;20179;-64
2022/02/27 09:32:55;;;;;;;19.98;9.48;;;;;;;;;;5093413;28;20535;-64
2022/02/27 09:35:28;;;;;;;22.13;10.00;;;;;;;;;;5093229;28;20672;-64
2022/02/27 09:37:54;;;;;;;22.10;10.10;;;;;;;;;;5093475;28;20641;-64
2022/02/27 09:40:20;;;;;;;21.60;10.40;;;;;;;;;;5092981;28;20191;-63
2022/02/27 09:42:45;;;;;;;26.30;11.10;;;;;;;;;;5093263;28;20195;-62
2022/02/27 09:45:12;;;;;;;23.05;10.68;;;;;;;;;;5093519;28;20164;-63
2022/02/27 09:47:37;;;;;;;22.52;10.27;;;;;;;;;;5093327;28;20250;-64
2022/02/27 09:50:04;;;;;;;23.90;11.32;;;;;;;;;;5093457;28;20247;-64
2022/02/27 09:52:29;;;;;;;26.52;11.35;;;;;;;;;;5093640;28;20250;-62
2022/02/27 09:54:56;;;;;;;25.42;12.23;;;;;;;;;;5093640;28;20561;-63
2022/02/27 09:57:23;;;;;;;34.72;14.50;;;;;;;;;;5093158;28;20164;-63
2022/02/27 09:59:49;;;;;;;31.13;13.65;;;;;;;;;;5093310;28;20171;-63
2022/02/27 10:02:15;;;;;;;35.17;15.23;;;;;;;;;;5092823;28;20247;-63
2022/02/27 10:04:42;;;;;;;34.15;15.43;;;;;;;;;;5092955;28;20501;-63
2022/02/27 10:07:12;;;;;;;35.60;15.45;;;;;;;;;;5092887;28;20164;-63
2022/02/27 10:09:39;;;;;;;32.80;15.88;;;;;;;;;;5092974;28;20358;-63
2022/02/27 10:12:17;;;;;;;34.47;15.77;;;;;;;;;;5093333;28;20255;-63
2022/02/27 10:14:43;;;;;;;33.83;15.30;;;;;;;;;;5093189;28;20583;-64
2022/02/27 10:17:09;;;;;;;27.95;14.48;;;;;;;;;;5092967;28;20556;-62
2022/02/27 10:19:39;;;;;;;25.63;13.70;;;;;;;;;;5093760;28;20631;-63
2022/02/27 10:22:07;;;;;;;24.80;12.55;;;;;;;;;;5096666;28;20210;-63
2022/02/27 10:24:34;;;;;;;24.80;12.15;;;;;;;;;;5096504;28;20164;-62
2022/02/27 10:27:00;;;;;;;20.95;11.52;;;;;;;;;;5096272;28;20334;-62
2022/02/27 10:29:26;;;;;;;22.40;10.82;;;;;;;;;;5096430;28;20159;-63
2022/02/27 10:31:56;;;;;;;18.48;10.18;;;;;;;;;;5096383;28;20171;-63
2022/02/27 10:34:22;;;;;;;18.00;9.45;;;;;;;;;;5096570;28;20300;-62
2022/02/27 10:36:51;;;;;;;18.70;9.48;;;;;;;;;;5096481;28;20171;-62
2022/02/27 10:39:27;;;;;;;16.98;9.00;;;;;;;;;;5096189;28;20175;-64
2022/02/27 10:41:53;;;;;;;14.77;8.80;;;;;;;;;;5096209;28;20186;-64
2022/02/27 10:44:23;;;;;;;18.80;9.63;;;;;;;;;;5096071;28;20243;-62
2022/02/27 10:46:49;;;;;;;16.38;9.02;;;;;;;;;;5096285;28;20202;-63
2022/02/27 10:49:30;;;;;;;17.45;9.48;;;;;;;;;;5096037;28;20176;-64
2022/02/27 10:52:09;;;;;;;17.88;9.10;;;;;;;;;;5096916;28;20156;-63
2022/02/27 10:54:38;;;;;;;21.00;10.10;;;;;;;;;;5096363;28;20251;-63
2022/02/27 10:57:04;;;;;;;17.65;9.43;;;;;;;;;;5095703;28;20792;-63
2022/02/27 10:59:30;;;;;;;17.33;8.43;;;;;;;;;;5096298;28;20171;-63
2022/02/27 11:01:56;;;;;;;16.90;9.10;;;;;;;;;;5095610;28;20223;-63
2022/02/27 11:04:23;;;;;;;15.60;8.52;;;;;;;;;;5095823;28;20164;-63
2022/02/27 11:06:50;;;;;;;16.33;9.32;;;;;;;;;;5096148;28;20163;-63
2022/02/27 11:09:16;;;;;;;15.25;8.90;;;;;;;;;;5095768;28;20630;-63
2022/02/27 11:11:42;;;;;;;14.75;7.93;;;;;;;;;;5095717;28;20626;-62
2022/02/27 11:14:08;;;;;;;13.90;8.15;;;;;;;;;;5095698;28;20656;-63
2022/02/27 11:16:34;;;;;;;14.02;8.02;;;;;;;;;;5095474;28;20700;-63
2022/02/27 11:19:00;;;;;;;15.77;8.90;;;;;;;;;;5095835;28;20177;-64
2022/02/27 11:21:26;;;;;;;14.63;7.97;;;;;;;;;;5095513;28;20206;-63
2022/02/27 11:23:52;;;;;;;15.10;8.23;;;;;;;;;;5095552;28;20668;-63
2022/02/27 11:26:19;;;;;;;13.18;8.02;;;;;;;;;;5095426;28;20286;-63
2022/02/27 11:28:45;;;;;;;13.45;7.70;;;;;;;;;;5095532;28;20166;-64
2022/02/27 11:31:13;;;;;;;13.50;6.97;;;;;;;;;;5094864;28;20280;-63
2022/02/27 11:33:39;;;;;;;14.98;8.15;;;;;;;;;;5095303;28;20171;-63
2022/02/27 11:36:18;;;;;;;14.50;7.85;;;;;;;;;;5095150;28;20676;-63
2022/02/27 11:38:44;;;;;;;13.18;7.20;;;;;;;;;;5095259;28;20155;-63
2022/02/27 11:41:11;;;;;;;12.75;7.28;;;;;;;;;;5094848;28;20222;-63
2022/02/27 11:43:40;;;;;;;9.80;6.05;;;;;;;;;;5095026;28;20221;-63
2022/02/27 11:46:07;;;;;;;13.43;7.60;;;;;;;;;;5095091;28;20603;-63
2022/02/27 11:48:51;;;;;;;13.27;7.75;;;;;;;;;;5095169;28;20175;-63
2022/02/27 11:51:36;;;;;;;12.07;6.72;;;;;;;;;;5095233;28;20225;-63
2022/02/27 11:54:08;;;;;;;10.77;6.10;;;;;;;;;;5094869;28;20292;-63
2022/02/27 11:56:34;;;;;;;10.77;6.88;;;;;;;;;;5094828;28;20236;-63
2022/02/27 11:59:03;;;;;;;14.57;7.55;;;;;;;;;;5096162;28;20503;-63
2022/02/27 12:01:35;;;;;;;11.60;6.40;;;;;;;;;;5094694;28;20199;-64
2022/02/27 12:04:20;;;;;;;11.90;6.38;;;;;;;;;;5094910;28;20158;-62
2022/02/27 12:07:03;;;;;;;11.00;6.47;;;;;;;;;;5094895;28;20164;-62
2022/02/27 12:09:52;;;;;;;10.93;6.20;;;;;;;;;;5093938;28;20193;-62
2022/02/27 12:12:41;;;;;;;12.43;6.20;;;;;;;;;;5094462;28;20177;-61
2022/02/27 12:15:20;;;;;;;11.05;6.50;;;;;;;;;;5094905;28;20159;-62
2022/02/27 12:18:01;;;;;;;10.38;5.97;;;;;;;;;;5094636;28;20685;-63
2022/02/27 12:20:47;;;;;;;10.02;5.75;;;;;;;;;;5094705;28;20191;-62
2022/02/27 12:23:28;;;;;;;9.50;5.57;;;;;;;;;;5094745;28;20166;-61
2022/02/27 12:25:55;;;;;;;11.32;5.90;;;;;;;;;;5094178;28;20570;-61
2022/02/27 12:28:40;;;;;;;9.55;5.22;;;;;;;;;;5094482;28;20185;-62
2022/02/27 12:31:06;;;;;;;11.20;5.10;;;;;;;;;;5095023;28;20614;-63
2022/02/27 12:33:32;;;;;;;9.68;5.53;;;;;;;;;;5095008;28;20228;-64
2022/02/27 12:36:00;;;;;;;10.65;5.88;;;;;;;;;;5094881;28;20611;-62
2022/02/27 12:38:27;;;;;;;9.95;5.30;;;;;;;;;;5094475;28;20232;-62
2022/02/27 12:40:59;;;;;;;9.45;6.10;;;;;;;;;;5094005;28;20646;-63
2022/02/27 12:43:25;;;;;;;8.32;5.32;;;;;;;;;;5093571;28;20622;-62
2022/02/27 12:45:51;;;;;;;11.95;5.70;;;;;;;;;;5093956;28;20167;-62
2022/02/27 12:48:21;;;;;;;9.88;6.28;;;;;;;;;;5093783;28;20163;-62
2022/02/27 12:50:49;;;;;;;8.25;5.35;;;;;;;;;;5093977;28;20160;-62
2022/02/27 12:53:15;;;;;;;8.25;5.47;;;;;;;;;;5093893;28;20173;-63
2022/02/27 12:55:41;;;;;;;11.27;5.22;;;;;;;;;;5093744;28;20171;-63
2022/02/27 12:58:08;;;;;;;8.13;5.15;;;;;;;;;;5093885;28;20645;-62
2022/02/27 13:00:35;;;;;;;9.75;5.50;;;;;;;;;;5093841;28;20203;-63
2022/02/27 13:03:07;;;;;;;8.80;5.07;;;;;;;;;;5093877;28;20733;-64
2022/02/27 13:05:33;;;;;;;10.93;6.15;;;;;;;;;;5093773;28;20566;-63
2022/02/27 13:08:07;;;;;;;10.23;5.22;;;;;;;;;;5093865;28;20168;-63
2022/02/27 13:10:33;;;;;;;9.88;5.35;;;;;;;;;;5093950;28;20218;-63
2022/02/27 13:12:59;;;;;;;8.27;5.43;;;;;;;;;;5093787;28;20180;-63
2022/02/27 13:15:26;;;;;;;10.05;5.90;;;;;;;;;;5094216;28;20234;-62
2022/02/27 13:17:52;;;;;;;8.38;5.63;;;;;;;;;;5093625;28;20174;-64
2022/02/27 13:20:19;;;;;;;10.07;5.55;;;;;;;;;;5093439;28;20163;-63
2022/02/27 13:22:49;;;;;;;8.68;4.95;;;;;;;;;;5093725;28;20182;-62
2022/02/27 13:25:16;;;;;;;9.93;5.90;;;;;;;;;;5093462;28;20599;-64
2022/02/27 13:27:45;;;;;;;9.60;5.43;;;;;;;;;;5093245;28;20194;-64
2022/02/27 13:30:12;;;;;;;9.73;5.68;;;;;;;;;;5093359;28;20191;-63
2022/02/27 13:32:39;;;;;;;9.40;5.50;;;;;;;;;;5093610;28;20222;-64
2022/02/27 13:35:08;;;;;;;12.27;5.03;;;;;;;;;;5093385;28;20589;-64
2022/02/27 13:37:35;;;;;;;9.35;6.07;;;;;;;;;;5093608;28;20263;-63
2022/02/27 13:40:05;;;;;;;10.52;5.57;;;;;;;;;;5093398;28;20171;-63
2022/02/27 13:42:32;;;;;;;11.30;5.82;;;;;;;;;;5093369;28;20185;-63
2022/02/27 13:45:02;;;;;;;9.50;5.50;;;;;;;;;;5093422;28;20599;-63
2022/02/27 13:47:30;;;;;;;11.70;6.32;;;;;;;;;;5093522;28;20170;-62
2022/02/27 13:49:56;;;;;;;10.43;6.18;;;;;;;;;;5093842;28;20599;-62
2022/02/27 13:52:23;;;;;;;10.70;6.20;;;;;;;;;;5093946;28;20172;-62
2022/02/27 13:54:50;;;;;;;11.32;6.10;;;;;;;;;;5096621;28;20183;-62
2022/02/27 13:57:16;;;;;;;10.15;5.68;;;;;;;;;;5097492;28;20208;-61
2022/02/27 13:59:51;;;;;;;12.35;5.85;;;;;;;;;;5097677;28;20167;-62
2022/02/27 14:02:27;;;;;;;13.35;6.53;;;;;;;;;;5096936;28;20191;-63
2022/02/27 14:05:28;;;;;;;11.40;6.97;;;;;;;;;;5097328;28;20163;-63
2022/02/27 14:07:55;;;;;;;12.20;6.65;;;;;;;;;;5074492;28;20172;-63
2022/02/27 14:10:28;;;;;;;11.85;6.45;;;;;;;;;;5074848;28;20180;-64
2022/02/27 14:13:00;;;;;;;11.38;6.75;;;;;;;;;;5074781;28;20579;-63
2022/02/27 14:15:27;;;;;;;13.40;6.68;;;;;;;;;;5074730;28;20516;-63
2022/02/27 14:17:53;;;;;;;12.73;6.50;;;;;;;;;;5074511;28;20589;-62
2022/02/27 14:20:28;;;;;;;13.23;6.32;;;;;;;;;;5074651;28;20259;-63
2022/02/27 14:23:03;;;;;;;11.23;6.25;;;;;;;;;;5074537;28;20512;-63
2022/02/27 14:25:29;;;;;;;14.50;6.55;;;;;;;;;;5074855;28;20488;-63
2022/02/27 14:28:08;;;;;;;12.15;6.43;;;;;;;;;;5074446;28;20148;-63
2022/02/27 14:30:37;;;;;;;10.80;6.20;;;;;;;;;;5074372;28;20152;-63